sensor_id;sensor_type;location;lat;lon;timestamp;P1;durP1;ratioP1;P2;durP2;ratioP2
27412;SDS011;14871;52.702;5.230;2023-05-23T00:01:44;15.75;;;9.70;;
27412;SDS011;14871;52.702;5.230;2023-05-23T00:04:10;13.00;;;8.50;;
27412;SDS011;14871;52.702;5.230;2023-05-23T00:06:44;11.98;;;8.13;;
27412;SDS011;14871;52.702;5.230;2023-05-23T00:09:14;12.57;;;7.72;;
27412;SDS011;14871;52.702;5.230;2023-05-23T00:11:41;11.07;;;6.68;;
27412;SDS011;14871;52.702;5.230;2023-05-23T00:14:13;10.98;;;7.45;;
27412;SDS011;14871;52.702;5.230;2023-05-23T00:16:40;11.63;;;7.13;;
27412;SDS011;14871;52.702;5.230;2023-05-23T00:19:08;16.17;;;8.45;;
27412;SDS011;14871;52.702;5.230;2023-05-23T00:21:40;24.83;;;9.15;;
27412;SDS011;14871;52.702;5.230;2023-05-23T00:24:07;24.45;;;10.57;;
27412;SDS011;14871;52.702;5.230;2023-05-23T00:26:34;24.40;;;10.40;;
27412;SDS011;14871;52.702;5.230;2023-05-23T00:29:00;24.02;;;11.70;;
27412;SDS011;14871;52.702;5.230;2023-05-23T00:31:26;20.20;;;11.23;;
27412;SDS011;14871;52.702;5.230;2023-05-23T00:33:52;22.00;;;11.82;;
27412;SDS011;14871;52.702;5.230;2023-05-23T00:36:18;24.58;;;10.75;;
27412;SDS011;14871;52.702;5.230;2023-05-23T00:38:44;22.75;;;10.85;;
27412;SDS011;14871;52.702;5.230;2023-05-23T00:41:10;22.02;;;10.75;;
27412;SDS011;14871;52.702;5.230;2023-05-23T00:43:36;19.48;;;10.07;;
27412;SDS011;14871;52.702;5.230;2023-05-23T00:46:02;24.33;;;11.57;;
27412;SDS011;14871;52.702;5.230;2023-05-23T00:48:28;24.75;;;11.85;;
27412;SDS011;14871;52.702;5.230;2023-05-23T00:50:53;23.05;;;11.38;;
27412;SDS011;14871;52.702;5.230;2023-05-23T00:53:21;25.38;;;10.52;;
27412;SDS011;14871;52.702;5.230;2023-05-23T00:55:47;20.60;;;10.50;;
27412;SDS011;14871;52.702;5.230;2023-05-23T00:58:12;23.00;;;9.13;;
27412;SDS011;14871;52.702;5.230;2023-05-23T01:00:40;18.02;;;8.10;;
27412;SDS011;14871;52.702;5.230;2023-05-23T01:03:06;14.40;;;7.43;;
27412;SDS011;14871;52.702;5.230;2023-05-23T01:05:31;19.50;;;8.50;;
27412;SDS011;14871;52.702;5.230;2023-05-23T01:07:57;17.95;;;8.43;;
27412;SDS011;14871;52.702;5.230;2023-05-23T01:10:25;17.10;;;8.63;;
27412;SDS011;14871;52.702;5.230;2023-05-23T01:12:57;16.52;;;8.00;;
27412;SDS011;14871;52.702;5.230;2023-05-23T01:15:35;18.88;;;8.48;;
27412;SDS011;14871;52.702;5.230;2023-05-23T01:18:11;21.67;;;8.25;;
27412;SDS011;14871;52.702;5.230;2023-05-23T01:20:48;21.83;;;8.15;;
27412;SDS011;14871;52.702;5.230;2023-05-23T01:26:03;21.08;;;8.40;;
27412;SDS011;14871;52.702;5.230;2023-05-23T01:28:39;19.70;;;8.18;;
27412;SDS011;14871;52.702;5.230;2023-05-23T01:31:11;21.67;;;9.07;;
27412;SDS011;14871;52.702;5.230;2023-05-23T01:33:38;29.30;;;10.27;;
27412;SDS011;14871;52.702;5.230;2023-05-23T01:36:05;19.45;;;8.95;;
27412;SDS011;14871;52.702;5.230;2023-05-23T01:38:32;25.10;;;9.32;;
27412;SDS011;14871;52.702;5.230;2023-05-23T01:40:57;21.98;;;9.60;;
27412;SDS011;14871;52.702;5.230;2023-05-23T01:43:23;21.45;;;9.45;;
27412;SDS011;14871;52.702;5.230;2023-05-23T01:45:50;23.77;;;8.65;;
27412;SDS011;14871;52.702;5.230;2023-05-23T01:48:18;22.80;;;8.88;;
27412;SDS011;14871;52.702;5.230;2023-05-23T01:50:45;20.77;;;8.65;;
27412;SDS011;14871;52.702;5.230;2023-05-23T01:53:11;22.80;;;8.85;;
27412;SDS011;14871;52.702;5.230;2023-05-23T01:55:40;26.90;;;10.38;;
27412;SDS011;14871;52.702;5.230;2023-05-23T01:58:06;23.48;;;8.40;;
27412;SDS011;14871;52.702;5.230;2023-05-23T02:00:33;22.27;;;8.38;;
27412;SDS011;14871;52.702;5.230;2023-05-23T02:02:58;18.85;;;8.43;;
27412;SDS011;14871;52.702;5.230;2023-05-23T02:05:24;21.65;;;9.20;;
27412;SDS011;14871;52.702;5.230;2023-05-23T02:07:51;19.90;;;9.15;;
27412;SDS011;14871;52.702;5.230;2023-05-23T02:10:17;19.27;;;8.48;;
27412;SDS011;14871;52.702;5.230;2023-05-23T02:12:44;25.45;;;9.88;;
27412;SDS011;14871;52.702;5.230;2023-05-23T02:15:10;23.10;;;8.63;;
27412;SDS011;14871;52.702;5.230;2023-05-23T02:17:35;18.27;;;8.40;;
27412;SDS011;14871;52.702;5.230;2023-05-23T02:20:03;19.45;;;8.93;;
27412;SDS011;14871;52.702;5.230;2023-05-23T02:22:30;23.13;;;8.73;;
27412;SDS011;14871;52.702;5.230;2023-05-23T02:24:56;19.90;;;8.45;;
27412;SDS011;14871;52.702;5.230;2023-05-23T02:27:22;25.10;;;8.93;;
27412;SDS011;14871;52.702;5.230;2023-05-23T02:29:47;21.45;;;8.68;;
27412;SDS011;14871;52.702;5.230;2023-05-23T02:32:13;23.42;;;8.52;;
27412;SDS011;14871;52.702;5.230;2023-05-23T02:34:39;20.27;;;8.25;;
27412;SDS011;14871;52.702;5.230;2023-05-23T02:37:06;24.25;;;7.97;;
27412;SDS011;14871;52.702;5.230;2023-05-23T02:39:33;20.02;;;7.85;;
27412;SDS011;14871;52.702;5.230;2023-05-23T02:42:00;17.10;;;7.28;;
27412;SDS011;14871;52.702;5.230;2023-05-23T02:44:26;21.58;;;7.05;;
27412;SDS011;14871;52.702;5.230;2023-05-23T02:46:52;20.08;;;6.95;;
27412;SDS011;14871;52.702;5.230;2023-05-23T02:49:18;18.48;;;7.55;;
27412;SDS011;14871;52.702;5.230;2023-05-23T02:51:44;20.30;;;6.30;;
27412;SDS011;14871;52.702;5.230;2023-05-23T02:54:13;17.98;;;6.13;;
27412;SDS011;14871;52.702;5.230;2023-05-23T02:56:45;15.52;;;6.00;;
27412;SDS011;14871;52.702;5.230;2023-05-23T02:59:11;17.35;;;6.13;;
27412;SDS011;14871;52.702;5.230;2023-05-23T03:01:37;13.95;;;5.47;;
27412;SDS011;14871;52.702;5.230;2023-05-23T03:04:03;14.20;;;5.30;;
27412;SDS011;14871;52.702;5.230;2023-05-23T03:06:30;13.40;;;5.45;;
27412;SDS011;14871;52.702;5.230;2023-05-23T03:08:58;17.15;;;5.68;;
27412;SDS011;14871;52.702;5.230;2023-05-23T03:11:25;12.27;;;4.65;;
27412;SDS011;14871;52.702;5.230;2023-05-23T03:13:50;12.75;;;4.78;;
27412;SDS011;14871;52.702;5.230;2023-05-23T03:16:16;10.35;;;4.20;;
27412;SDS011;14871;52.702;5.230;2023-05-23T03:18:42;12.50;;;4.72;;
27412;SDS011;14871;52.702;5.230;2023-05-23T03:21:07;11.38;;;4.63;;
27412;SDS011;14871;52.702;5.230;2023-05-23T03:23:33;9.43;;;4.25;;
27412;SDS011;14871;52.702;5.230;2023-05-23T03:26:00;11.98;;;4.82;;
27412;SDS011;14871;52.702;5.230;2023-05-23T03:28:27;12.90;;;4.38;;
27412;SDS011;14871;52.702;5.230;2023-05-23T03:30:55;11.23;;;4.20;;
27412;SDS011;14871;52.702;5.230;2023-05-23T03:33:21;12.55;;;4.75;;
27412;SDS011;14871;52.702;5.230;2023-05-23T03:35:46;14.02;;;4.53;;
27412;SDS011;14871;52.702;5.230;2023-05-23T03:38:12;13.82;;;4.72;;
27412;SDS011;14871;52.702;5.230;2023-05-23T03:40:38;11.40;;;4.50;;
27412;SDS011;14871;52.702;5.230;2023-05-23T03:43:04;12.75;;;5.30;;
27412;SDS011;14871;52.702;5.230;2023-05-23T03:45:31;12.52;;;4.80;;
27412;SDS011;14871;52.702;5.230;2023-05-23T03:47:57;18.30;;;5.65;;
27412;SDS011;14871;52.702;5.230;2023-05-23T03:50:23;14.75;;;5.70;;
27412;SDS011;14871;52.702;5.230;2023-05-23T03:52:49;15.70;;;5.18;;
27412;SDS011;14871;52.702;5.230;2023-05-23T03:55:15;14.77;;;5.95;;
27412;SDS011;14871;52.702;5.230;2023-05-23T03:57:41;16.92;;;5.82;;
27412;SDS011;14871;52.702;5.230;2023-05-23T04:00:07;15.90;;;5.38;;
27412;SDS011;14871;52.702;5.230;2023-05-23T04:02:36;12.52;;;4.93;;
27412;SDS011;14871;52.702;5.230;2023-05-23T04:05:04;13.68;;;5.50;;
27412;SDS011;14871;52.702;5.230;2023-05-23T04:07:30;13.27;;;5.22;;
27412;SDS011;14871;52.702;5.230;2023-05-23T04:10:00;17.08;;;5.45;;
27412;SDS011;14871;52.702;5.230;2023-05-23T04:12:26;16.00;;;6.80;;
27412;SDS011;14871;52.702;5.230;2023-05-23T04:14:55;20.58;;;6.40;;
27412;SDS011;14871;52.702;5.230;2023-05-23T04:17:22;12.00;;;5.63;;
27412;SDS011;14871;52.702;5.230;2023-05-23T04:19:48;19.98;;;5.75;;
27412;SDS011;14871;52.702;5.230;2023-05-23T04:22:14;20.67;;;6.90;;
27412;SDS011;14871;52.702;5.230;2023-05-23T04:24:40;17.08;;;6.80;;
27412;SDS011;14871;52.702;5.230;2023-05-23T04:27:06;17.02;;;6.30;;
27412;SDS011;14871;52.702;5.230;2023-05-23T04:29:33;11.68;;;6.30;;
27412;SDS011;14871;52.702;5.230;2023-05-23T04:32:00;15.65;;;6.68;;
27412;SDS011;14871;52.702;5.230;2023-05-23T04:34:26;14.05;;;6.85;;
27412;SDS011;14871;52.702;5.230;2023-05-23T04:36:53;21.30;;;7.78;;
27412;SDS011;14871;52.702;5.230;2023-05-23T04:39:19;19.33;;;7.55;;
27412;SDS011;14871;52.702;5.230;2023-05-23T04:41:44;18.08;;;7.07;;
27412;SDS011;14871;52.702;5.230;2023-05-23T04:44:11;17.30;;;6.78;;
27412;SDS011;14871;52.702;5.230;2023-05-23T04:46:38;18.88;;;7.70;;
27412;SDS011;14871;52.702;5.230;2023-05-23T04:49:09;22.67;;;7.63;;
27412;SDS011;14871;52.702;5.230;2023-05-23T04:51:37;14.35;;;6.97;;
27412;SDS011;14871;52.702;5.230;2023-05-23T04:54:03;14.80;;;6.63;;
27412;SDS011;14871;52.702;5.230;2023-05-23T04:56:29;14.70;;;6.93;;
27412;SDS011;14871;52.702;5.230;2023-05-23T04:58:55;16.13;;;7.00;;
27412;SDS011;14871;52.702;5.230;2023-05-23T05:01:21;14.27;;;6.38;;
27412;SDS011;14871;52.702;5.230;2023-05-23T05:03:50;16.83;;;7.13;;
27412;SDS011;14871;52.702;5.230;2023-05-23T05:06:17;17.15;;;6.93;;
27412;SDS011;14871;52.702;5.230;2023-05-23T05:08:43;16.95;;;7.55;;
27412;SDS011;14871;52.702;5.230;2023-05-23T05:11:09;17.92;;;8.23;;
27412;SDS011;14871;52.702;5.230;2023-05-23T05:13:35;18.67;;;6.97;;
27412;SDS011;14871;52.702;5.230;2023-05-23T05:16:01;13.43;;;5.88;;
27412;SDS011;14871;52.702;5.230;2023-05-23T05:18:28;17.42;;;6.78;;
27412;SDS011;14871;52.702;5.230;2023-05-23T05:20:55;13.80;;;6.10;;
27412;SDS011;14871;52.702;5.230;2023-05-23T05:23:24;17.90;;;6.05;;
27412;SDS011;14871;52.702;5.230;2023-05-23T05:25:53;15.55;;;5.57;;
27412;SDS011;14871;52.702;5.230;2023-05-23T05:28:20;13.52;;;5.28;;
27412;SDS011;14871;52.702;5.230;2023-05-23T05:30:46;11.57;;;5.13;;
27412;SDS011;14871;52.702;5.230;2023-05-23T05:33:12;16.10;;;4.63;;
27412;SDS011;14871;52.702;5.230;2023-05-23T05:35:39;11.30;;;4.43;;
27412;SDS011;14871;52.702;5.230;2023-05-23T05:38:05;13.93;;;4.70;;
27412;SDS011;14871;52.702;5.230;2023-05-23T05:40:32;11.30;;;4.63;;
27412;SDS011;14871;52.702;5.230;2023-05-23T05:42:58;11.65;;;3.97;;
27412;SDS011;14871;52.702;5.230;2023-05-23T05:45:25;13.48;;;3.63;;
27412;SDS011;14871;52.702;5.230;2023-05-23T05:47:50;17.33;;;4.00;;
27412;SDS011;14871;52.702;5.230;2023-05-23T05:50:17;15.75;;;3.42;;
27412;SDS011;14871;52.702;5.230;2023-05-23T05:52:44;16.55;;;4.00;;
27412;SDS011;14871;52.702;5.230;2023-05-23T05:55:10;14.27;;;3.50;;
27412;SDS011;14871;52.702;5.230;2023-05-23T05:57:36;17.77;;;3.88;;
27412;SDS011;14871;52.702;5.230;2023-05-23T06:00:06;15.70;;;3.25;;
27412;SDS011;14871;52.702;5.230;2023-05-23T06:02:39;17.98;;;3.88;;
27412;SDS011;14871;52.702;5.230;2023-05-23T06:05:05;19.17;;;4.20;;
27412;SDS011;14871;52.702;5.230;2023-05-23T06:07:35;13.80;;;3.20;;
27412;SDS011;14871;52.702;5.230;2023-05-23T06:10:00;22.63;;;4.25;;
27412;SDS011;14871;52.702;5.230;2023-05-23T06:12:26;19.67;;;4.20;;
27412;SDS011;14871;52.702;5.230;2023-05-23T06:14:52;13.55;;;4.63;;
27412;SDS011;14871;52.702;5.230;2023-05-23T06:17:18;17.33;;;3.85;;
27412;SDS011;14871;52.702;5.230;2023-05-23T06:19:44;16.73;;;3.63;;
27412;SDS011;14871;52.702;5.230;2023-05-23T06:22:09;13.63;;;3.60;;
27412;SDS011;14871;52.702;5.230;2023-05-23T06:24:36;17.20;;;4.38;;
27412;SDS011;14871;52.702;5.230;2023-05-23T06:27:02;16.10;;;4.20;;
27412;SDS011;14871;52.702;5.230;2023-05-23T06:29:28;14.45;;;4.03;;
27412;SDS011;14871;52.702;5.230;2023-05-23T06:31:55;14.40;;;4.13;;
27412;SDS011;14871;52.702;5.230;2023-05-23T06:34:21;21.85;;;4.18;;
27412;SDS011;14871;52.702;5.230;2023-05-23T06:36:47;19.50;;;4.18;;
27412;SDS011;14871;52.702;5.230;2023-05-23T06:39:14;15.88;;;4.03;;
27412;SDS011;14871;52.702;5.230;2023-05-23T06:41:39;20.38;;;3.80;;
27412;SDS011;14871;52.702;5.230;2023-05-23T06:44:05;15.93;;;3.75;;
27412;SDS011;14871;52.702;5.230;2023-05-23T06:46:31;22.00;;;4.25;;
27412;SDS011;14871;52.702;5.230;2023-05-23T06:48:57;20.48;;;3.97;;
27412;SDS011;14871;52.702;5.230;2023-05-23T06:51:23;16.75;;;3.53;;
27412;SDS011;14871;52.702;5.230;2023-05-23T06:53:48;17.75;;;3.60;;
27412;SDS011;14871;52.702;5.230;2023-05-23T06:56:14;16.35;;;3.58;;
27412;SDS011;14871;52.702;5.230;2023-05-23T06:58:40;19.73;;;3.63;;
27412;SDS011;14871;52.702;5.230;2023-05-23T07:01:06;16.60;;;4.63;;
27412;SDS011;14871;52.702;5.230;2023-05-23T07:03:32;14.90;;;4.03;;
27412;SDS011;14871;52.702;5.230;2023-05-23T07:05:58;16.65;;;4.00;;
27412;SDS011;14871;52.702;5.230;2023-05-23T07:08:24;17.52;;;3.67;;
27412;SDS011;14871;52.702;5.230;2023-05-23T07:10:49;16.83;;;4.55;;
27412;SDS011;14871;52.702;5.230;2023-05-23T07:13:15;15.55;;;3.78;;
27412;SDS011;14871;52.702;5.230;2023-05-23T07:15:40;20.52;;;3.60;;
27412;SDS011;14871;52.702;5.230;2023-05-23T07:18:06;13.55;;;3.75;;
27412;SDS011;14871;52.702;5.230;2023-05-23T07:20:32;15.50;;;3.53;;
27412;SDS011;14871;52.702;5.230;2023-05-23T07:22:58;19.48;;;4.00;;
27412;SDS011;14871;52.702;5.230;2023-05-23T07:25:24;19.85;;;4.22;;
27412;SDS011;14871;52.702;5.230;2023-05-23T07:27:50;19.02;;;4.22;;
27412;SDS011;14871;52.702;5.230;2023-05-23T07:30:18;24.08;;;4.38;;
27412;SDS011;14871;52.702;5.230;2023-05-23T07:32:46;17.52;;;4.38;;
27412;SDS011;14871;52.702;5.230;2023-05-23T07:35:12;17.83;;;3.92;;
27412;SDS011;14871;52.702;5.230;2023-05-23T07:37:38;17.77;;;3.88;;
27412;SDS011;14871;52.702;5.230;2023-05-23T07:40:04;19.17;;;3.80;;
27412;SDS011;14871;52.702;5.230;2023-05-23T07:42:31;20.08;;;5.03;;
27412;SDS011;14871;52.702;5.230;2023-05-23T07:44:57;19.95;;;4.60;;
27412;SDS011;14871;52.702;5.230;2023-05-23T07:47:23;17.45;;;4.03;;
27412;SDS011;14871;52.702;5.230;2023-05-23T07:49:49;19.08;;;3.83;;
27412;SDS011;14871;52.702;5.230;2023-05-23T07:52:16;16.55;;;4.00;;
27412;SDS011;14871;52.702;5.230;2023-05-23T07:54:41;19.60;;;4.70;;
27412;SDS011;14871;52.702;5.230;2023-05-23T07:57:08;18.50;;;3.80;;
27412;SDS011;14871;52.702;5.230;2023-05-23T07:59:34;14.95;;;3.90;;
27412;SDS011;14871;52.702;5.230;2023-05-23T08:02:00;23.63;;;4.47;;
27412;SDS011;14871;52.702;5.230;2023-05-23T08:04:26;14.07;;;3.78;;
27412;SDS011;14871;52.702;5.230;2023-05-23T08:06:53;18.00;;;4.55;;
27412;SDS011;14871;52.702;5.230;2023-05-23T08:09:19;19.80;;;5.03;;
27412;SDS011;14871;52.702;5.230;2023-05-23T08:11:48;16.67;;;4.03;;
27412;SDS011;14871;52.702;5.230;2023-05-23T08:14:14;19.05;;;4.70;;
27412;SDS011;14871;52.702;5.230;2023-05-23T08:16:39;17.77;;;4.10;;
27412;SDS011;14871;52.702;5.230;2023-05-23T08:19:05;17.98;;;3.83;;
27412;SDS011;14871;52.702;5.230;2023-05-23T08:21:31;20.17;;;4.63;;
27412;SDS011;14871;52.702;5.230;2023-05-23T08:23:57;19.52;;;4.00;;
27412;SDS011;14871;52.702;5.230;2023-05-23T08:26:23;18.15;;;5.05;;
27412;SDS011;14871;52.702;5.230;2023-05-23T08:28:48;18.38;;;3.17;;
27412;SDS011;14871;52.702;5.230;2023-05-23T08:31:15;19.67;;;4.10;;
27412;SDS011;14871;52.702;5.230;2023-05-23T08:33:41;18.52;;;3.63;;
27412;SDS011;14871;52.702;5.230;2023-05-23T08:36:08;25.48;;;4.35;;
27412;SDS011;14871;52.702;5.230;2023-05-23T08:38:34;21.85;;;4.43;;
27412;SDS011;14871;52.702;5.230;2023-05-23T08:41:00;20.50;;;4.53;;
27412;SDS011;14871;52.702;5.230;2023-05-23T08:43:26;12.63;;;3.80;;
27412;SDS011;14871;52.702;5.230;2023-05-23T08:45:52;17.23;;;3.35;;
27412;SDS011;14871;52.702;5.230;2023-05-23T08:48:19;13.90;;;4.35;;
27412;SDS011;14871;52.702;5.230;2023-05-23T08:50:47;15.80;;;3.95;;
27412;SDS011;14871;52.702;5.230;2023-05-23T08:53:15;18.40;;;3.67;;
27412;SDS011;14871;52.702;5.230;2023-05-23T08:55:45;15.32;;;4.28;;
27412;SDS011;14871;52.702;5.230;2023-05-23T09:00:45;19.35;;;4.00;;
27412;SDS011;14871;52.702;5.230;2023-05-23T09:03:11;15.20;;;3.55;;
27412;SDS011;14871;52.702;5.230;2023-05-23T09:05:38;19.50;;;3.65;;
27412;SDS011;14871;52.702;5.230;2023-05-23T09:08:04;14.98;;;3.67;;
27412;SDS011;14871;52.702;5.230;2023-05-23T09:10:30;15.07;;;3.75;;
27412;SDS011;14871;52.702;5.230;2023-05-23T09:12:56;12.88;;;3.90;;
27412;SDS011;14871;52.702;5.230;2023-05-23T09:15:22;15.30;;;3.45;;
27412;SDS011;14871;52.702;5.230;2023-05-23T09:17:48;16.92;;;3.60;;
27412;SDS011;14871;52.702;5.230;2023-05-23T09:20:15;20.00;;;3.80;;
27412;SDS011;14871;52.702;5.230;2023-05-23T09:22:47;11.23;;;3.70;;
27412;SDS011;14871;52.702;5.230;2023-05-23T09:25:14;15.90;;;3.45;;
27412;SDS011;14871;52.702;5.230;2023-05-23T09:27:40;15.45;;;3.53;;
27412;SDS011;14871;52.702;5.230;2023-05-23T09:30:07;17.27;;;3.80;;
27412;SDS011;14871;52.702;5.230;2023-05-23T09:32:35;18.05;;;3.78;;
27412;SDS011;14871;52.702;5.230;2023-05-23T09:35:02;16.17;;;3.63;;
27412;SDS011;14871;52.702;5.230;2023-05-23T09:37:39;16.73;;;4.30;;
27412;SDS011;14871;52.702;5.230;2023-05-23T09:40:10;11.05;;;3.45;;
27412;SDS011;14871;52.702;5.230;2023-05-23T09:42:41;10.00;;;3.03;;
27412;SDS011;14871;52.702;5.230;2023-05-23T09:45:08;15.48;;;3.35;;
27412;SDS011;14871;52.702;5.230;2023-05-23T09:47:35;13.80;;;3.20;;
27412;SDS011;14871;52.702;5.230;2023-05-23T09:50:00;11.38;;;3.53;;
27412;SDS011;14871;52.702;5.230;2023-05-23T09:52:27;12.73;;;3.20;;
27412;SDS011;14871;52.702;5.230;2023-05-23T09:55:04;11.73;;;2.72;;
27412;SDS011;14871;52.702;5.230;2023-05-23T09:57:32;9.50;;;2.90;;
27412;SDS011;14871;52.702;5.230;2023-05-23T10:00:02;11.57;;;2.78;;
27412;SDS011;14871;52.702;5.230;2023-05-23T10:05:32;8.10;;;2.58;;
27412;SDS011;14871;52.702;5.230;2023-05-23T10:08:04;10.00;;;2.72;;
27412;SDS011;14871;52.702;5.230;2023-05-23T10:13:26;10.98;;;3.22;;
27412;SDS011;14871;52.702;5.230;2023-05-23T10:15:59;13.10;;;3.22;;
27412;SDS011;14871;52.702;5.230;2023-05-23T10:18:38;13.23;;;3.25;;
27412;SDS011;14871;52.702;5.230;2023-05-23T10:21:23;15.40;;;3.67;;
27412;SDS011;14871;52.702;5.230;2023-05-23T10:23:57;12.60;;;3.03;;
27412;SDS011;14871;52.702;5.230;2023-05-23T10:26:25;11.55;;;2.97;;
27412;SDS011;14871;52.702;5.230;2023-05-23T10:28:51;12.18;;;2.97;;
27412;SDS011;14871;52.702;5.230;2023-05-23T10:31:19;10.43;;;2.95;;
27412;SDS011;14871;52.702;5.230;2023-05-23T10:33:48;11.77;;;3.15;;
27412;SDS011;14871;52.702;5.230;2023-05-23T10:36:23;9.20;;;2.80;;
27412;SDS011;14871;52.702;5.230;2023-05-23T10:39:32;12.07;;;2.92;;
27412;SDS011;14871;52.702;5.230;2023-05-23T10:41:50;11.20;;;3.42;;
27412;SDS011;14871;52.702;5.230;2023-05-23T10:44:25;12.23;;;3.15;;
27412;SDS011;14871;52.702;5.230;2023-05-23T10:46:59;14.43;;;3.10;;
27412;SDS011;14871;52.702;5.230;2023-05-23T10:49:40;8.13;;;2.72;;
27412;SDS011;14871;52.702;5.230;2023-05-23T10:52:16;8.27;;;2.15;;
27412;SDS011;14871;52.702;5.230;2023-05-23T10:57:14;8.60;;;2.55;;
27412;SDS011;14871;52.702;5.230;2023-05-23T10:59:43;13.60;;;3.40;;
27412;SDS011;14871;52.702;5.230;2023-05-23T11:02:14;16.70;;;3.50;;
27412;SDS011;14871;52.702;5.230;2023-05-23T11:04:42;13.38;;;3.22;;
27412;SDS011;14871;52.702;5.230;2023-05-23T11:07:28;13.18;;;3.80;;
27412;SDS011;14871;52.702;5.230;2023-05-23T11:10:29;12.73;;;3.08;;
27412;SDS011;14871;52.702;5.230;2023-05-23T11:12:47;15.48;;;3.38;;
27412;SDS011;14871;52.702;5.230;2023-05-23T11:17:55;7.25;;;2.30;;
27412;SDS011;14871;52.702;5.230;2023-05-23T11:20:24;12.00;;;2.97;;
27412;SDS011;14871;52.702;5.230;2023-05-23T11:22:52;11.55;;;2.88;;
27412;SDS011;14871;52.702;5.230;2023-05-23T11:25:42;7.88;;;2.55;;
27412;SDS011;14871;52.702;5.230;2023-05-23T11:28:09;10.82;;;2.90;;
27412;SDS011;14871;52.702;5.230;2023-05-23T11:30:36;8.77;;;3.20;;
27412;SDS011;14871;52.702;5.230;2023-05-23T11:33:10;10.77;;;2.60;;
27412;SDS011;14871;52.702;5.230;2023-05-23T11:35:40;14.85;;;3.25;;
27412;SDS011;14871;52.702;5.230;2023-05-23T11:38:07;13.93;;;3.22;;
27412;SDS011;14871;52.702;5.230;2023-05-23T11:40:34;12.43;;;3.13;;
27412;SDS011;14871;52.702;5.230;2023-05-23T11:43:08;12.85;;;3.67;;
27412;SDS011;14871;52.702;5.230;2023-05-23T11:45:35;14.10;;;2.88;;
27412;SDS011;14871;52.702;5.230;2023-05-23T11:48:08;13.93;;;3.30;;
27412;SDS011;14871;52.702;5.230;2023-05-23T11:50:48;15.27;;;2.95;;
27412;SDS011;14871;52.702;5.230;2023-05-23T11:53:16;9.07;;;2.65;;
27412;SDS011;14871;52.702;5.230;2023-05-23T11:55:51;11.80;;;3.13;;
27412;SDS011;14871;52.702;5.230;2023-05-23T11:58:29;9.27;;;1.83;;
27412;SDS011;14871;52.702;5.230;2023-05-23T12:00:57;16.17;;;3.60;;
27412;SDS011;14871;52.702;5.230;2023-05-23T12:03:27;9.75;;;2.72;;
27412;SDS011;14871;52.702;5.230;2023-05-23T12:05:56;13.05;;;3.15;;
27412;SDS011;14871;52.702;5.230;2023-05-23T12:08:22;12.25;;;3.05;;
27412;SDS011;14871;52.702;5.230;2023-05-23T12:10:53;13.38;;;2.88;;
27412;SDS011;14871;52.702;5.230;2023-05-23T12:13:22;12.70;;;2.85;;
27412;SDS011;14871;52.702;5.230;2023-05-23T12:15:53;13.73;;;3.50;;
27412;SDS011;14871;52.702;5.230;2023-05-23T12:18:20;11.00;;;2.90;;
27412;SDS011;14871;52.702;5.230;2023-05-23T12:20:49;6.70;;;2.20;;
27412;SDS011;14871;52.702;5.230;2023-05-23T12:23:23;11.50;;;2.90;;
27412;SDS011;14871;52.702;5.230;2023-05-23T12:25:51;13.15;;;3.00;;
27412;SDS011;14871;52.702;5.230;2023-05-23T12:28:18;11.57;;;2.58;;
27412;SDS011;14871;52.702;5.230;2023-05-23T12:30:44;12.60;;;2.63;;
27412;SDS011;14871;52.702;5.230;2023-05-23T12:33:13;10.95;;;2.97;;
27412;SDS011;14871;52.702;5.230;2023-05-23T12:35:43;12.45;;;2.70;;
27412;SDS011;14871;52.702;5.230;2023-05-23T12:38:09;6.95;;;2.45;;
27412;SDS011;14871;52.702;5.230;2023-05-23T12:40:41;12.68;;;2.47;;
27412;SDS011;14871;52.702;5.230;2023-05-23T12:43:08;9.57;;;2.70;;
27412;SDS011;14871;52.702;5.230;2023-05-23T12:45:35;12.73;;;2.58;;
27412;SDS011;14871;52.702;5.230;2023-05-23T12:48:01;12.95;;;3.10;;
27412;SDS011;14871;52.702;5.230;2023-05-23T12:50:28;13.70;;;3.10;;
27412;SDS011;14871;52.702;5.230;2023-05-23T12:52:54;10.93;;;2.85;;
27412;SDS011;14871;52.702;5.230;2023-05-23T12:55:20;14.85;;;3.00;;
27412;SDS011;14871;52.702;5.230;2023-05-23T12:57:46;15.07;;;2.83;;
27412;SDS011;14871;52.702;5.230;2023-05-23T13:00:12;12.43;;;2.85;;
27412;SDS011;14871;52.702;5.230;2023-05-23T13:02:38;12.95;;;2.55;;
27412;SDS011;14871;52.702;5.230;2023-05-23T13:05:05;12.20;;;2.50;;
27412;SDS011;14871;52.702;5.230;2023-05-23T13:07:31;13.85;;;2.92;;
27412;SDS011;14871;52.702;5.230;2023-05-23T13:09:57;11.00;;;2.95;;
27412;SDS011;14871;52.702;5.230;2023-05-23T13:12:23;10.93;;;2.50;;
27412;SDS011;14871;52.702;5.230;2023-05-23T13:14:49;14.10;;;2.95;;
27412;SDS011;14871;52.702;5.230;2023-05-23T13:17:15;14.52;;;2.58;;
27412;SDS011;14871;52.702;5.230;2023-05-23T13:19:41;12.45;;;3.05;;
27412;SDS011;14871;52.702;5.230;2023-05-23T13:22:07;11.55;;;2.90;;
27412;SDS011;14871;52.702;5.230;2023-05-23T13:24:36;11.38;;;2.80;;
27412;SDS011;14871;52.702;5.230;2023-05-23T13:27:03;12.80;;;2.88;;
27412;SDS011;14871;52.702;5.230;2023-05-23T13:29:30;12.40;;;3.03;;
27412;SDS011;14871;52.702;5.230;2023-05-23T13:31:56;8.15;;;2.60;;
27412;SDS011;14871;52.702;5.230;2023-05-23T13:34:22;9.02;;;2.33;;
27412;SDS011;14871;52.702;5.230;2023-05-23T13:36:47;11.27;;;3.15;;
27412;SDS011;14871;52.702;5.230;2023-05-23T13:39:13;7.18;;;2.38;;
27412;SDS011;14871;52.702;5.230;2023-05-23T13:41:39;11.02;;;2.60;;
27412;SDS011;14871;52.702;5.230;2023-05-23T13:44:05;9.00;;;2.75;;
27412;SDS011;14871;52.702;5.230;2023-05-23T13:46:30;10.35;;;2.80;;
27412;SDS011;14871;52.702;5.230;2023-05-23T13:48:56;16.65;;;3.53;;
27412;SDS011;14871;52.702;5.230;2023-05-23T13:51:22;9.15;;;2.60;;
27412;SDS011;14871;52.702;5.230;2023-05-23T13:53:47;9.60;;;2.47;;
27412;SDS011;14871;52.702;5.230;2023-05-23T13:56:19;10.52;;;2.58;;
27412;SDS011;14871;52.702;5.230;2023-05-23T13:58:51;11.07;;;3.33;;
27412;SDS011;14871;52.702;5.230;2023-05-23T14:01:18;10.13;;;2.83;;
27412;SDS011;14871;52.702;5.230;2023-05-23T14:03:43;9.82;;;2.80;;
27412;SDS011;14871;52.702;5.230;2023-05-23T14:06:09;8.52;;;3.22;;
27412;SDS011;14871;52.702;5.230;2023-05-23T14:08:35;12.43;;;2.80;;
27412;SDS011;14871;52.702;5.230;2023-05-23T14:11:01;10.13;;;2.53;;
27412;SDS011;14871;52.702;5.230;2023-05-23T14:13:26;9.75;;;2.83;;
27412;SDS011;14871;52.702;5.230;2023-05-23T14:15:52;10.80;;;2.58;;
27412;SDS011;14871;52.702;5.230;2023-05-23T14:18:18;16.52;;;2.95;;
27412;SDS011;14871;52.702;5.230;2023-05-23T14:20:44;8.10;;;2.47;;
27412;SDS011;14871;52.702;5.230;2023-05-23T14:23:09;10.13;;;2.50;;
27412;SDS011;14871;52.702;5.230;2023-05-23T14:25:35;12.50;;;2.95;;
27412;SDS011;14871;52.702;5.230;2023-05-23T14:28:01;13.15;;;3.00;;
27412;SDS011;14871;52.702;5.230;2023-05-23T14:30:26;14.48;;;3.08;;
27412;SDS011;14871;52.702;5.230;2023-05-23T14:32:52;9.80;;;2.25;;
27412;SDS011;14871;52.702;5.230;2023-05-23T14:35:18;10.68;;;3.00;;
27412;SDS011;14871;52.702;5.230;2023-05-23T14:37:46;11.15;;;2.65;;
27412;SDS011;14871;52.702;5.230;2023-05-23T14:40:12;10.88;;;2.42;;
27412;SDS011;14871;52.702;5.230;2023-05-23T14:42:40;8.48;;;2.40;;
27412;SDS011;14871;52.702;5.230;2023-05-23T14:45:06;15.50;;;3.05;;
27412;SDS011;14871;52.702;5.230;2023-05-23T14:47:32;7.53;;;3.00;;
27412;SDS011;14871;52.702;5.230;2023-05-23T14:49:58;14.73;;;3.22;;
27412;SDS011;14871;52.702;5.230;2023-05-23T14:52:24;10.73;;;2.35;;
27412;SDS011;14871;52.702;5.230;2023-05-23T14:54:49;10.65;;;2.20;;